Terminal Aerodrome Forecast
Issued by NWS

Current Version | Previous Version | Text Only | Print | Product List | Glossary On
Versions: 1 2 3 4 5 6 7 8 9 10 11 12 13 14 15 16 17 18 19 20 21 22 23 24 25 26 27 28 29
000
FTUS45 KTWC 301700
TAFOLS
TAF
KOLS 301732Z 3018/3118 25008KT P6SM VCTS SCT080CB BKN150
     FM310200 08006KT P6SM SCT090 BKN200
     FM310700 VRB04KT P6SM FEW090 BKN200=

USA.gov is the U.S. government's official web portal to all federal, state and local government web resources and services.